createdAt,value
2022-11-04T00:00:18.410Z,12.30
2022-11-04T00:02:45.832Z,12.30
2022-11-04T00:05:12.715Z,12.20
2022-11-04T00:07:58.199Z,12.20
2022-11-04T00:10:44.877Z,12.20
2022-11-04T00:13:11.709Z,12.10
2022-11-04T00:15:57.056Z,12.10
2022-11-04T00:18:23.872Z,12.10
2022-11-04T00:21:09.094Z,12.10
2022-11-04T00:23:54.628Z,12.10
2022-11-04T00:26:39.919Z,12.20
2022-11-04T00:29:07.124Z,12.20
2022-11-04T00:31:52.229Z,12.30
2022-11-04T00:34:19.050Z,12.30
2022-11-04T00:36:46.160Z,12.20
2022-11-04T00:39:12.939Z,12.10
2022-11-04T00:41:39.665Z,12.00
2022-11-04T00:44:06.497Z,11.90
2022-11-04T00:46:34.372Z,11.90
2022-11-04T00:49:01.507Z,11.90
2022-11-04T00:51:29.029Z,11.90
2022-11-04T00:53:58.352Z,11.80
2022-11-04T00:56:25.363Z,11.70
2022-11-04T00:58:52.530Z,11.60
2022-11-04T01:01:20.003Z,11.60
2022-11-04T01:03:49.183Z,11.60
2022-11-04T01:06:16.544Z,11.50
2022-11-04T01:08:43.697Z,11.60
2022-11-04T01:11:11.685Z,11.50
2022-11-04T01:13:39.611Z,11.50
2022-11-04T01:16:09.120Z,11.50
2022-11-04T01:18:36.348Z,11.40
2022-11-04T01:21:04.868Z,11.30
2022-11-04T01:23:31.819Z,11.30
2022-11-04T01:25:58.965Z,11.30
2022-11-04T01:28:26.131Z,11.40
2022-11-04T01:30:52.896Z,11.40
2022-11-04T01:33:19.993Z,11.40
2022-11-04T01:35:46.788Z,11.40
2022-11-04T01:38:13.925Z,11.50
2022-11-04T01:40:41.129Z,11.40
2022-11-04T01:43:19.482Z,11.50
2022-11-04T01:45:55.783Z,11.60
2022-11-04T01:48:29.667Z,11.60
2022-11-04T01:50:57.224Z,11.70
2022-11-04T01:53:32.282Z,11.60
2022-11-04T01:56:02.538Z,11.70
2022-11-04T01:58:33.190Z,11.60
2022-11-04T02:01:00.103Z,11.70
2022-11-04T02:03:33.061Z,11.60
2022-11-04T02:06:00.705Z,11.70
2022-11-04T02:08:28.777Z,11.70
2022-11-04T02:10:59.786Z,11.60
2022-11-04T02:13:28.613Z,11.70
2022-11-04T02:16:29.612Z,11.70
2022-11-04T02:19:14.816Z,11.70
2022-11-04T02:21:53.477Z,11.60
2022-11-04T02:24:26.465Z,11.70
2022-11-04T02:27:02.526Z,11.60
2022-11-04T02:29:54.277Z,11.60
2022-11-04T02:32:31.018Z,11.60
2022-11-04T02:35:40.626Z,11.50
2022-11-04T02:38:19.674Z,11.50
2022-11-04T02:40:58.926Z,11.40
2022-11-04T02:43:48.369Z,11.40
2022-11-04T02:46:30.833Z,11.40
2022-11-04T02:49:13.784Z,11.40
2022-11-04T02:52:00.234Z,11.40
2022-11-04T02:54:34.659Z,11.50
2022-11-04T02:57:05.156Z,11.60
2022-11-04T02:59:52.677Z,11.60
2022-11-04T03:02:26.618Z,11.40
2022-11-04T03:04:55.860Z,11.50
2022-11-04T03:07:27.508Z,11.50
2022-11-04T03:10:01.504Z,11.40
2022-11-04T03:12:37.600Z,11.40
2022-11-04T03:15:11.245Z,11.50
2022-11-04T03:17:52.707Z,11.50
2022-11-04T03:20:24.590Z,11.50
2022-11-04T03:22:55.761Z,11.40
2022-11-04T03:25:32.326Z,11.50
2022-11-04T03:28:25.078Z,11.40
2022-11-04T03:30:57.017Z,11.50
2022-11-04T03:33:26.468Z,11.40
2022-11-04T03:35:53.445Z,11.50
2022-11-04T03:38:22.284Z,11.50
2022-11-04T03:40:49.912Z,11.40
2022-11-04T03:43:27.821Z,11.50
2022-11-04T03:45:55.153Z,11.40
2022-11-04T03:48:23.079Z,11.40
2022-11-04T03:50:50.971Z,11.40
2022-11-04T03:53:23.895Z,11.40
2022-11-04T03:56:21.241Z,11.50
2022-11-04T03:58:58.335Z,11.40
2022-11-04T04:01:42.074Z,11.50
2022-11-04T04:04:23.018Z,11.50
2022-11-04T04:06:53.415Z,11.40
2022-11-04T04:09:51.869Z,11.50
2022-11-04T04:12:30.410Z,11.50
2022-11-04T04:15:07.205Z,11.60
2022-11-04T04:17:47.129Z,11.50
2022-11-04T04:20:20.928Z,11.50
2022-11-04T04:22:57.041Z,11.40
2022-11-04T04:25:53.223Z,11.40
2022-11-04T04:28:20.934Z,11.50
2022-11-04T04:30:47.978Z,11.50
2022-11-04T04:33:19.392Z,11.60
2022-11-04T04:35:52.893Z,11.60
2022-11-04T04:38:42.361Z,11.60
2022-11-04T04:41:39.384Z,11.50
2022-11-04T04:44:36.100Z,11.60
2022-11-04T04:47:04.938Z,11.50
2022-11-04T04:49:35.315Z,11.50
2022-11-04T04:52:07.315Z,11.50
2022-11-04T04:54:34.444Z,11.60
2022-11-04T04:57:01.196Z,11.60
2022-11-04T04:59:27.958Z,11.60
2022-11-04T05:01:54.839Z,11.60
2022-11-04T05:04:21.709Z,11.50
2022-11-04T05:06:48.937Z,11.60
2022-11-04T05:09:15.653Z,11.50
2022-11-04T05:11:42.414Z,11.50
2022-11-04T05:14:09.144Z,11.50
2022-11-04T05:16:40.536Z,11.50
2022-11-04T05:19:07.960Z,11.60
2022-11-04T05:21:34.792Z,11.60
2022-11-04T05:24:01.560Z,11.70
2022-11-04T05:26:28.398Z,11.70
2022-11-04T05:28:55.162Z,11.70
2022-11-04T05:31:21.998Z,11.70
2022-11-04T05:33:48.705Z,11.60
2022-11-04T05:36:17.000Z,11.50
2022-11-04T05:38:44.534Z,11.70
2022-11-04T05:41:25.792Z,11.70
2022-11-04T05:44:01.864Z,11.60
2022-11-04T05:46:29.555Z,11.60
2022-11-04T05:48:56.786Z,11.60
2022-11-04T05:51:26.442Z,11.70
2022-11-04T05:53:53.635Z,11.80
2022-11-04T05:56:21.118Z,12.60
2022-11-04T05:58:48.194Z,12.80
2022-11-04T06:01:31.417Z,13.00
2022-11-04T06:03:59.572Z,13.10
2022-11-04T06:06:28.786Z,13.10
2022-11-04T06:08:55.801Z,13.60
2022-11-04T06:11:23.818Z,13.20
2022-11-04T06:13:51.129Z,13.10
2022-11-04T06:16:18.101Z,12.90
2022-11-04T06:18:45.009Z,12.70
2022-11-04T06:21:22.396Z,12.40
2022-11-04T06:23:49.484Z,12.40
2022-11-04T06:26:18.196Z,12.30
2022-11-04T06:28:45.389Z,12.30
2022-11-04T06:31:13.780Z,12.30
2022-11-04T06:33:40.745Z,12.30
2022-11-04T06:36:10.362Z,12.30
2022-11-04T06:38:38.181Z,12.20
2022-11-04T06:41:08.409Z,12.30
2022-11-04T06:43:35.257Z,12.40
2022-11-04T06:46:03.017Z,12.40
2022-11-04T06:48:30.873Z,12.50
2022-11-04T06:50:59.361Z,12.70
2022-11-04T06:53:27.101Z,12.70
2022-11-04T06:55:54.633Z,12.80
2022-11-04T06:58:21.397Z,12.90
2022-11-04T07:00:53.583Z,13.00
2022-11-04T07:03:20.503Z,13.10
2022-11-04T07:05:47.712Z,13.00
2022-11-04T07:08:14.753Z,13.20
2022-11-04T07:10:42.154Z,13.20
2022-11-04T07:13:08.971Z,13.30
2022-11-04T07:15:35.886Z,13.40
2022-11-04T07:18:03.061Z,13.40
2022-11-04T07:20:30.245Z,13.40
2022-11-04T07:22:57.423Z,13.30
2022-11-04T07:25:24.691Z,13.40
2022-11-04T07:27:51.494Z,13.40
2022-11-04T07:30:20.594Z,13.50
2022-11-04T07:32:47.635Z,13.60
2022-11-04T07:35:14.759Z,13.80
2022-11-04T07:37:41.534Z,13.80
2022-11-04T07:40:09.411Z,13.90
2022-11-04T07:42:36.522Z,14.00
2022-11-04T07:45:04.003Z,14.10
2022-11-04T07:47:31.639Z,13.90
2022-11-04T07:49:59.076Z,13.90
2022-11-04T07:52:25.957Z,13.90
2022-11-04T07:54:53.107Z,13.90
2022-11-04T07:57:19.906Z,13.80
2022-11-04T07:59:46.684Z,13.80
2022-11-04T08:02:13.628Z,13.80
2022-11-04T08:04:41.124Z,13.80
2022-11-04T08:07:09.484Z,13.80
2022-11-04T08:09:39.169Z,13.90
2022-11-04T08:12:06.714Z,13.90
2022-11-04T08:14:33.634Z,14.00
2022-11-04T08:17:00.448Z,14.20
2022-11-04T08:19:27.643Z,14.20
2022-11-04T08:21:54.638Z,14.20
2022-11-04T08:24:21.454Z,14.20
2022-11-04T08:26:48.691Z,14.20
2022-11-04T08:29:15.790Z,14.20
2022-11-04T08:31:42.728Z,14.10
2022-11-04T08:34:10.044Z,14.10
2022-11-04T08:36:40.894Z,14.00
2022-11-04T08:39:10.855Z,14.00
2022-11-04T08:41:41.181Z,14.00
2022-11-04T08:44:08.873Z,14.00
2022-11-04T08:46:38.606Z,14.00
2022-11-04T08:49:09.655Z,14.00
2022-11-04T08:51:41.394Z,13.90
2022-11-04T08:54:08.700Z,13.90
2022-11-04T08:56:38.361Z,13.90
2022-11-04T08:59:06.193Z,13.90
2022-11-04T09:01:36.269Z,13.80
2022-11-04T09:04:05.382Z,13.80
2022-11-04T09:06:35.947Z,13.90
2022-11-04T09:09:04.727Z,13.90
2022-11-04T09:11:33.291Z,13.90
2022-11-04T09:14:03.460Z,13.90
2022-11-04T09:16:33.035Z,13.90
2022-11-04T09:19:00.702Z,13.80
2022-11-04T09:21:27.808Z,13.80
2022-11-04T09:23:55.455Z,13.80
2022-11-04T09:26:23.747Z,13.80
2022-11-04T09:28:57.901Z,13.70
2022-11-04T09:31:26.637Z,13.60
2022-11-04T09:33:55.100Z,13.70
2022-11-04T09:36:22.037Z,13.60
2022-11-04T09:38:48.985Z,13.70
2022-11-04T09:41:32.031Z,13.70
2022-11-04T09:44:11.860Z,13.70
2022-11-04T09:46:39.375Z,13.80
2022-11-04T09:49:09.641Z,13.90
2022-11-04T09:51:55.160Z,14.00
2022-11-04T09:54:45.888Z,14.10
2022-11-04T09:57:18.165Z,14.10
2022-11-04T09:59:45.978Z,14.10
2022-11-04T10:02:38.458Z,14.20
2022-11-04T10:05:20.412Z,14.20
2022-11-04T10:08:02.434Z,14.30
2022-11-04T10:10:45.982Z,14.40
2022-11-04T10:13:18.191Z,14.50
2022-11-04T10:15:53.867Z,14.40
2022-11-04T10:18:27.079Z,14.50
2022-11-04T10:21:21.550Z,14.50
2022-11-04T10:24:04.352Z,14.60
2022-11-04T10:27:10.530Z,14.50
2022-11-04T10:29:54.372Z,14.60
2022-11-04T10:32:38.338Z,14.60
2022-11-04T10:35:13.064Z,14.50
2022-11-04T10:37:40.046Z,14.50
2022-11-04T10:40:29.358Z,14.40
2022-11-04T10:43:00.784Z,14.50
2022-11-04T10:45:35.949Z,14.40
2022-11-04T10:48:11.940Z,14.40
2022-11-04T10:50:55.670Z,14.50
2022-11-04T10:53:28.419Z,14.40
2022-11-04T10:56:12.724Z,14.40
2022-11-04T10:58:47.433Z,14.50
2022-11-04T11:01:25.240Z,14.50
2022-11-04T11:03:52.213Z,14.60
2022-11-04T11:06:31.896Z,14.60
2022-11-04T11:09:18.448Z,14.50
2022-11-04T11:11:51.497Z,14.60
2022-11-04T11:14:28.593Z,14.60
2022-11-04T11:16:56.476Z,14.60
2022-11-04T11:19:26.604Z,14.70
2022-11-04T11:21:55.996Z,14.70
2022-11-04T11:24:30.766Z,14.80
2022-11-04T11:27:00.882Z,14.70
2022-11-04T11:29:31.777Z,14.80
2022-11-04T11:32:00.995Z,14.80
2022-11-04T11:34:38.991Z,14.80
2022-11-04T11:37:22.236Z,14.80
2022-11-04T11:39:49.092Z,14.90
2022-11-04T11:42:16.444Z,15.00
2022-11-04T11:45:10.490Z,15.00
2022-11-04T11:47:42.112Z,15.00
2022-11-04T11:50:20.939Z,15.10
2022-11-04T11:52:52.856Z,15.00
2022-11-04T11:55:23.751Z,15.00
2022-11-04T12:01:42.724Z,15.00
2022-11-04T12:10:49.858Z,14.90
2022-11-04T12:13:26.587Z,14.90
2022-11-04T12:16:04.244Z,15.00
2022-11-04T12:18:49.441Z,15.00
2022-11-04T12:21:35.161Z,15.20
2022-11-04T12:24:23.823Z,15.20
2022-11-04T12:27:34.859Z,15.20
2022-11-04T12:30:14.621Z,15.20
2022-11-04T12:33:14.841Z,15.20
2022-11-04T12:36:03.267Z,15.20
2022-11-04T12:39:08.892Z,15.30
2022-11-04T12:42:22.969Z,15.30
2022-11-04T12:45:05.766Z,15.50
2022-11-04T12:47:43.026Z,15.50
2022-11-04T12:50:21.585Z,15.60
2022-11-04T12:53:28.749Z,15.80
2022-11-04T12:56:04.971Z,16.00
2022-11-04T12:59:08.714Z,16.10
2022-11-04T13:01:41.970Z,16.30
2022-11-04T13:04:20.741Z,16.30
2022-11-04T13:07:01.805Z,16.40
2022-11-04T13:09:43.068Z,16.40
2022-11-04T13:12:31.864Z,16.50
2022-11-04T13:15:23.578Z,16.60
2022-11-04T13:17:55.842Z,16.60
2022-11-04T13:20:49.990Z,16.70
2022-11-04T13:23:24.393Z,16.90
2022-11-04T13:25:52.472Z,16.90
2022-11-04T13:28:22.159Z,16.90
2022-11-04T13:31:31.630Z,17.10
2022-11-04T13:34:13.793Z,17.40
2022-11-04T13:37:07.984Z,17.70
2022-11-04T13:39:44.301Z,18.10
2022-11-04T13:42:47.873Z,18.50
2022-11-04T13:45:18.316Z,18.90
2022-11-04T13:47:53.420Z,19.20
2022-11-04T13:50:33.124Z,19.40
2022-11-04T13:53:00.429Z,19.70
2022-11-04T13:55:27.802Z,20.00
2022-11-04T13:58:01.441Z,20.10
2022-11-04T14:00:29.936Z,20.10
2022-11-04T14:02:58.221Z,20.00
2022-11-04T14:05:28.597Z,19.80
2022-11-04T14:08:01.675Z,19.70
2022-11-04T14:10:50.396Z,19.70
2022-11-04T14:13:37.543Z,19.80
2022-11-04T14:16:10.891Z,19.60
2022-11-04T14:18:42.926Z,19.10
2022-11-04T14:21:12.819Z,18.90
2022-11-04T14:23:42.848Z,18.60
2022-11-04T14:26:12.546Z,18.40
2022-11-04T14:28:43.870Z,18.30
2022-11-04T14:31:17.726Z,18.10
2022-11-04T14:33:53.655Z,18.00
2022-11-04T14:36:21.138Z,17.90
2022-11-04T14:39:06.233Z,17.70
2022-11-04T14:42:12.285Z,17.40
2022-11-04T14:44:49.791Z,17.30
2022-11-04T14:47:29.917Z,17.10
2022-11-04T14:50:01.626Z,16.90
2022-11-04T14:52:42.036Z,16.80
2022-11-04T14:55:11.782Z,16.70
2022-11-04T14:57:41.525Z,16.60
2022-11-04T15:00:23.613Z,16.50
2022-11-04T15:03:10.344Z,16.50
2022-11-04T15:05:39.568Z,16.40
2022-11-04T15:08:33.044Z,16.40
2022-11-04T15:11:00.197Z,16.40
2022-11-04T15:13:27.013Z,16.40
2022-11-04T15:15:57.422Z,16.40
2022-11-04T15:18:28.501Z,16.40
2022-11-04T15:20:58.277Z,16.40
2022-11-04T15:23:30.906Z,16.40
2022-11-04T15:25:59.516Z,16.60
2022-11-04T15:28:34.548Z,16.50
2022-11-04T15:31:06.350Z,16.50
2022-11-04T15:33:52.797Z,16.40
2022-11-04T15:36:41.520Z,16.50
2022-11-04T15:39:18.239Z,16.50
2022-11-04T15:42:04.596Z,16.40
2022-11-04T15:44:33.904Z,16.40
2022-11-04T15:47:25.018Z,16.40
2022-11-04T15:49:53.459Z,16.40
2022-11-04T15:52:20.651Z,16.30
2022-11-04T15:54:50.433Z,16.30
2022-11-04T15:57:24.495Z,16.40
2022-11-04T15:59:53.009Z,16.40
2022-11-04T16:02:32.070Z,16.40
2022-11-04T16:05:25.462Z,16.30
2022-11-04T16:07:55.193Z,16.20
2022-11-04T16:10:31.331Z,16.00
2022-11-04T16:13:22.673Z,15.80
2022-11-04T16:16:10.383Z,15.50
2022-11-04T16:18:48.842Z,15.30
2022-11-04T16:21:34.931Z,15.10
2022-11-04T16:24:05.855Z,15.00
2022-11-04T16:26:44.640Z,14.80
2022-11-04T16:29:27.114Z,14.90
2022-11-04T16:32:12.605Z,14.80
2022-11-04T16:34:39.764Z,14.80
2022-11-04T16:37:06.530Z,14.80
2022-11-04T16:39:34.472Z,14.80
2022-11-04T16:42:01.352Z,14.70
2022-11-04T16:44:28.733Z,14.70
2022-11-04T16:46:57.143Z,14.70
2022-11-04T16:49:24.363Z,14.70
2022-11-04T16:51:55.310Z,14.80
2022-11-04T16:54:23.485Z,14.80
2022-11-04T16:56:50.511Z,14.80
2022-11-04T16:59:17.322Z,14.70
2022-11-04T17:01:44.207Z,14.70
2022-11-04T17:04:11.369Z,14.70
2022-11-04T17:06:38.574Z,14.70
2022-11-04T17:09:21.420Z,14.70
2022-11-04T17:11:49.238Z,14.70
2022-11-04T17:14:16.642Z,14.70
2022-11-04T17:16:45.218Z,14.70
2022-11-04T17:19:16.461Z,14.70
2022-11-04T17:21:45.185Z,14.60
2022-11-04T17:24:12.661Z,14.60
2022-11-04T17:26:39.608Z,14.60
2022-11-04T17:29:06.526Z,14.60
2022-11-04T17:31:33.738Z,14.60
2022-11-04T17:34:00.505Z,14.60
2022-11-04T17:36:27.364Z,14.60
2022-11-04T17:38:54.161Z,14.60
2022-11-04T17:41:39.317Z,14.60
2022-11-04T17:44:06.105Z,14.60
2022-11-04T17:46:34.354Z,14.60
2022-11-04T17:49:16.092Z,14.60
2022-11-04T17:51:45.714Z,14.60
2022-11-04T17:54:12.724Z,14.70
2022-11-04T17:56:40.829Z,14.70
2022-11-04T17:59:08.826Z,14.70
2022-11-04T18:01:37.086Z,14.70
2022-11-04T18:04:04.168Z,14.70
2022-11-04T18:06:33.454Z,14.60
2022-11-04T18:09:00.460Z,14.50
2022-11-04T18:11:47.548Z,14.40
2022-11-04T18:14:16.849Z,14.40
2022-11-04T18:16:47.093Z,14.40
2022-11-04T18:19:14.742Z,14.40
2022-11-04T18:21:41.919Z,14.40
2022-11-04T18:24:09.525Z,14.40
2022-11-04T18:26:36.641Z,14.40
2022-11-04T18:29:04.504Z,14.40
2022-11-04T18:31:36.484Z,14.40
2022-11-04T18:34:07.495Z,14.30
2022-11-04T18:36:35.350Z,14.30
2022-11-04T18:39:02.419Z,14.30
2022-11-04T18:41:29.946Z,14.30
2022-11-04T18:43:57.349Z,14.30
2022-11-04T18:46:24.153Z,14.30
2022-11-04T18:48:51.794Z,14.30
2022-11-04T18:51:22.005Z,14.30
2022-11-04T18:53:49.793Z,14.20
2022-11-04T18:56:19.227Z,14.20
2022-11-04T18:58:46.095Z,14.20
2022-11-04T19:01:39.433Z,14.30
2022-11-04T19:04:06.462Z,14.30
2022-11-04T19:06:36.220Z,14.40
2022-11-04T19:09:31.986Z,14.40
2022-11-04T19:12:13.432Z,14.50
2022-11-04T19:14:40.426Z,14.40
2022-11-04T19:17:07.243Z,14.30
2022-11-04T19:19:33.955Z,14.20
2022-11-04T19:22:00.733Z,14.10
2022-11-04T19:24:28.593Z,14.00
2022-11-04T19:26:55.504Z,14.00
2022-11-04T19:29:22.340Z,13.90
2022-11-04T19:31:49.588Z,13.90
2022-11-04T19:34:16.380Z,13.90
2022-11-04T19:36:43.189Z,13.80
2022-11-04T19:39:09.959Z,13.80
2022-11-04T19:41:55.079Z,13.80
2022-11-04T19:44:22.425Z,13.80
2022-11-04T19:46:50.273Z,13.80
2022-11-04T19:49:18.021Z,13.70
2022-11-04T19:51:44.988Z,13.70
2022-11-04T19:54:11.842Z,14.20
2022-11-04T19:56:38.713Z,14.10
2022-11-04T19:59:07.339Z,13.90
2022-11-04T20:01:35.313Z,13.80
2022-11-04T20:04:04.188Z,13.70
2022-11-04T20:06:32.413Z,13.60
2022-11-04T20:09:05.737Z,13.60
2022-11-04T20:11:57.618Z,13.50
2022-11-04T20:14:25.306Z,13.40
2022-11-04T20:16:52.702Z,13.50
2022-11-04T20:19:22.950Z,13.40
2022-11-04T20:21:50.543Z,13.40
2022-11-04T20:24:17.830Z,13.40
2022-11-04T20:26:46.576Z,13.50
2022-11-04T20:29:13.582Z,13.60
2022-11-04T20:31:41.332Z,13.60
2022-11-04T20:34:10.459Z,13.60
2022-11-04T20:36:38.084Z,13.50
2022-11-04T20:39:26.497Z,13.60
2022-11-04T20:41:53.716Z,13.60
2022-11-04T20:44:20.547Z,13.70
2022-11-04T20:46:47.594Z,13.70
2022-11-04T20:49:14.634Z,13.80
2022-11-04T20:51:48.654Z,13.80
2022-11-04T20:54:17.198Z,13.80
2022-11-04T20:56:44.908Z,13.80
2022-11-04T20:59:13.616Z,13.90
2022-11-04T21:01:43.243Z,13.90
2022-11-04T21:04:15.225Z,13.90
2022-11-04T21:06:42.530Z,13.90
2022-11-04T21:09:13.005Z,14.00
2022-11-04T21:11:40.413Z,14.00
2022-11-04T21:14:08.849Z,14.00
2022-11-04T21:16:36.137Z,14.00
2022-11-04T21:19:04.262Z,14.00
2022-11-04T21:21:32.457Z,14.00
2022-11-04T21:24:01.736Z,14.20
2022-11-04T21:26:30.297Z,14.10
2022-11-04T21:29:00.890Z,14.00
2022-11-04T21:31:28.572Z,14.00
2022-11-04T21:33:55.950Z,14.00
2022-11-04T21:36:22.928Z,13.90
2022-11-04T21:38:50.377Z,13.90
2022-11-04T21:41:23.117Z,13.90
2022-11-04T21:43:58.156Z,13.90
2022-11-04T21:46:26.497Z,14.00
2022-11-04T21:48:54.471Z,13.90
2022-11-04T21:51:23.644Z,14.00
2022-11-04T21:53:50.596Z,14.00
2022-11-04T21:56:18.677Z,14.00
2022-11-04T21:58:45.773Z,13.90
2022-11-04T22:01:18.728Z,13.90
2022-11-04T22:03:50.698Z,13.90
2022-11-04T22:06:18.179Z,13.90
2022-11-04T22:08:49.358Z,13.90
2022-11-04T22:11:19.377Z,13.90
2022-11-04T22:13:46.298Z,13.90
2022-11-04T22:16:18.803Z,14.00
2022-11-04T22:18:46.305Z,14.00
2022-11-04T22:21:15.928Z,14.00
2022-11-04T22:23:42.870Z,13.90
2022-11-04T22:26:21.870Z,13.90
2022-11-04T22:28:48.737Z,13.80
2022-11-04T22:31:30.748Z,13.80
2022-11-04T22:33:58.165Z,13.70
2022-11-04T22:36:25.960Z,13.70
2022-11-04T22:38:52.893Z,13.70
2022-11-04T22:41:23.756Z,13.80
2022-11-04T22:43:50.528Z,13.80
2022-11-04T22:46:23.672Z,13.80
2022-11-04T22:48:50.714Z,13.80
2022-11-04T22:51:17.705Z,13.80
2022-11-04T22:53:45.323Z,13.80
2022-11-04T22:56:14.231Z,13.80
2022-11-04T22:58:41.394Z,13.80
2022-11-04T23:01:11.272Z,13.80
2022-11-04T23:03:41.485Z,13.90
2022-11-04T23:06:09.371Z,13.90
2022-11-04T23:08:37.192Z,13.90
2022-11-04T23:11:40.198Z,13.80
2022-11-04T23:14:25.786Z,13.80
2022-11-04T23:17:11.859Z,13.80
2022-11-04T23:19:39.325Z,14.00
2022-11-04T23:22:25.817Z,14.00
2022-11-04T23:25:11.339Z,13.90
2022-11-04T23:28:06.229Z,13.90
2022-11-04T23:30:36.634Z,13.80
2022-11-04T23:33:12.303Z,13.80
2022-11-04T23:36:01.086Z,13.80
2022-11-04T23:38:30.846Z,13.80
2022-11-04T23:41:22.865Z,13.80
2022-11-04T23:43:49.645Z,13.90
2022-11-04T23:46:41.188Z,13.80
2022-11-04T23:49:30.136Z,13.80
2022-11-04T23:52:16.084Z,13.90
2022-11-04T23:55:01.221Z,13.90
2022-11-04T23:57:46.440Z,13.80
